Terminal Aerodrome Forecast
Issued by NWS Atlanta, GA

Home | Current Version | Previous Version | Text Only | Print | Product List | Glossary On
Versions: 1 2 3 4 5 6 7 8 9 10 11 12 13 14 15 16 17 18 19 20 21 22 23 24 25 26
311
FTUS42 KFFC 201751
TAFMCN
TAF
KMCN 201751Z 2018/2118 24008G15KT P6SM SCT015 BKN030
     FM202000 22003KT P6SM BKN040
     FM210300 19005KT P6SM SCT012 BKN025
     FM210600 21003KT 5SM BR VCSH BKN007
     FM210800 20003KT 3SM -TSRA BKN004 OVC015CB=

USA.gov is the U.S. government's official web portal to all federal, state and local government web resources and services.